sensor_id;sensor_type;location;lat;lon;timestamp;P1;durP1;ratioP1;P2;durP2;ratioP2
36441;SDS011;64346;50.820;16.274;2022-12-10T00:01:28;144.60;;;48.10;;
36441;SDS011;64346;50.820;16.274;2022-12-10T00:04:00;121.55;;;46.38;;
36441;SDS011;64346;50.820;16.274;2022-12-10T00:06:31;110.07;;;47.15;;
36441;SDS011;64346;50.820;16.274;2022-12-10T00:09:03;125.22;;;46.97;;
36441;SDS011;64346;50.820;16.274;2022-12-10T00:11:32;174.05;;;46.58;;
36441;SDS011;64346;50.820;16.274;2022-12-10T00:14:02;109.13;;;47.25;;
36441;SDS011;64346;50.820;16.274;2022-12-10T00:16:29;111.13;;;43.38;;
36441;SDS011;64346;50.820;16.274;2022-12-10T00:18:57;113.28;;;45.30;;
36441;SDS011;64346;50.820;16.274;2022-12-10T00:21:25;132.80;;;44.97;;
36441;SDS011;64346;50.820;16.274;2022-12-10T00:23:57;119.13;;;46.03;;
36441;SDS011;64346;50.820;16.274;2022-12-10T00:26:32;108.68;;;46.40;;
36441;SDS011;64346;50.820;16.274;2022-12-10T00:29:02;154.88;;;45.47;;
36441;SDS011;64346;50.820;16.274;2022-12-10T00:31:32;218.23;;;47.72;;
36441;SDS011;64346;50.820;16.274;2022-12-10T00:34:03;111.00;;;44.42;;
36441;SDS011;64346;50.820;16.274;2022-12-10T00:36:35;164.65;;;45.75;;
36441;SDS011;64346;50.820;16.274;2022-12-10T00:39:08;114.70;;;46.47;;
36441;SDS011;64346;50.820;16.274;2022-12-10T00:41:39;115.68;;;46.42;;
36441;SDS011;64346;50.820;16.274;2022-12-10T00:44:10;119.82;;;44.25;;
36441;SDS011;64346;50.820;16.274;2022-12-10T00:46:37;115.72;;;44.40;;
36441;SDS011;64346;50.820;16.274;2022-12-10T00:49:05;120.63;;;43.50;;
36441;SDS011;64346;50.820;16.274;2022-12-10T00:51:32;122.55;;;40.50;;
36441;SDS011;64346;50.820;16.274;2022-12-10T00:54:02;100.60;;;40.53;;
36441;SDS011;64346;50.820;16.274;2022-12-10T00:56:30;99.40;;;41.25;;
36441;SDS011;64346;50.820;16.274;2022-12-10T00:58:58;102.30;;;40.03;;
36441;SDS011;64346;50.820;16.274;2022-12-10T01:04:00;98.78;;;40.72;;
36441;SDS011;64346;50.820;16.274;2022-12-10T01:06:33;70.38;;;29.40;;
36441;SDS011;64346;50.820;16.274;2022-12-10T01:09:07;87.18;;;37.65;;
36441;SDS011;64346;50.820;16.274;2022-12-10T01:11:38;83.20;;;37.15;;
36441;SDS011;64346;50.820;16.274;2022-12-10T01:14:08;86.38;;;36.40;;
36441;SDS011;64346;50.820;16.274;2022-12-10T01:16:39;82.22;;;34.22;;
36441;SDS011;64346;50.820;16.274;2022-12-10T01:19:09;75.65;;;32.03;;
36441;SDS011;64346;50.820;16.274;2022-12-10T01:21:37;83.57;;;34.38;;
36441;SDS011;64346;50.820;16.274;2022-12-10T01:24:05;79.60;;;34.63;;
36441;SDS011;64346;50.820;16.274;2022-12-10T01:26:33;72.60;;;33.45;;
36441;SDS011;64346;50.820;16.274;2022-12-10T01:29:01;69.30;;;30.95;;
36441;SDS011;64346;50.820;16.274;2022-12-10T01:31:31;67.18;;;29.05;;
36441;SDS011;64346;50.820;16.274;2022-12-10T01:34:02;63.42;;;29.13;;
36441;SDS011;64346;50.820;16.274;2022-12-10T01:36:35;56.53;;;27.65;;
36441;SDS011;64346;50.820;16.274;2022-12-10T01:39:05;68.00;;;28.00;;
36441;SDS011;64346;50.820;16.274;2022-12-10T01:41:35;65.05;;;29.75;;
36441;SDS011;64346;50.820;16.274;2022-12-10T01:46:35;66.93;;;27.33;;
36441;SDS011;64346;50.820;16.274;2022-12-10T01:49:06;58.78;;;26.58;;
36441;SDS011;64346;50.820;16.274;2022-12-10T01:51:40;61.80;;;27.40;;
36441;SDS011;64346;50.820;16.274;2022-12-10T01:54:11;53.88;;;25.88;;
36441;SDS011;64346;50.820;16.274;2022-12-10T01:56:42;54.22;;;25.08;;
36441;SDS011;64346;50.820;16.274;2022-12-10T01:59:14;45.95;;;20.08;;
36441;SDS011;64346;50.820;16.274;2022-12-10T02:02:44;58.15;;;25.45;;
36441;SDS011;64346;50.820;16.274;2022-12-10T02:09:57;57.70;;;27.65;;
36441;SDS011;64346;50.820;16.274;2022-12-10T02:12:34;62.67;;;26.60;;
36441;SDS011;64346;50.820;16.274;2022-12-10T02:15:08;62.53;;;27.83;;
36441;SDS011;64346;50.820;16.274;2022-12-10T02:17:45;63.00;;;26.90;;
36441;SDS011;64346;50.820;16.274;2022-12-10T02:20:24;60.65;;;27.27;;
36441;SDS011;64346;50.820;16.274;2022-12-10T02:23:02;61.08;;;26.02;;
36441;SDS011;64346;50.820;16.274;2022-12-10T02:31:00;57.08;;;26.20;;
36441;SDS011;64346;50.820;16.274;2022-12-10T02:33:31;54.60;;;25.10;;
36441;SDS011;64346;50.820;16.274;2022-12-10T02:36:01;52.17;;;24.73;;
36441;SDS011;64346;50.820;16.274;2022-12-10T02:38:30;59.08;;;25.92;;
36441;SDS011;64346;50.820;16.274;2022-12-10T02:41:04;58.42;;;25.33;;
36441;SDS011;64346;50.820;16.274;2022-12-10T02:43:34;52.53;;;22.52;;
36441;SDS011;64346;50.820;16.274;2022-12-10T02:46:02;49.55;;;24.45;;
36441;SDS011;64346;50.820;16.274;2022-12-10T02:48:32;55.10;;;24.83;;
36441;SDS011;64346;50.820;16.274;2022-12-10T02:51:03;51.30;;;22.33;;
36441;SDS011;64346;50.820;16.274;2022-12-10T02:53:30;46.83;;;20.80;;
36441;SDS011;64346;50.820;16.274;2022-12-10T02:58:37;47.90;;;20.25;;
36441;SDS011;64346;50.820;16.274;2022-12-10T03:01:51;46.78;;;20.77;;
36441;SDS011;64346;50.820;16.274;2022-12-10T03:04:36;42.65;;;19.88;;
36441;SDS011;64346;50.820;16.274;2022-12-10T03:07:18;44.05;;;18.80;;
36441;SDS011;64346;50.820;16.274;2022-12-10T03:09:59;44.28;;;18.52;;
36441;SDS011;64346;50.820;16.274;2022-12-10T03:12:51;41.28;;;18.70;;
36441;SDS011;64346;50.820;16.274;2022-12-10T03:15:25;46.13;;;19.55;;
36441;SDS011;64346;50.820;16.274;2022-12-10T03:17:54;48.33;;;18.88;;
36441;SDS011;64346;50.820;16.274;2022-12-10T03:20:23;38.83;;;18.77;;
36441;SDS011;64346;50.820;16.274;2022-12-10T03:22:52;39.95;;;18.67;;
36441;SDS011;64346;50.820;16.274;2022-12-10T03:25:22;39.97;;;18.65;;
36441;SDS011;64346;50.820;16.274;2022-12-10T03:27:54;41.35;;;18.75;;
36441;SDS011;64346;50.820;16.274;2022-12-10T03:30:22;40.85;;;18.00;;
36441;SDS011;64346;50.820;16.274;2022-12-10T03:32:50;43.50;;;20.02;;
36441;SDS011;64346;50.820;16.274;2022-12-10T03:35:19;44.72;;;18.67;;
36441;SDS011;64346;50.820;16.274;2022-12-10T03:37:50;42.22;;;17.65;;
36441;SDS011;64346;50.820;16.274;2022-12-10T03:40:20;49.45;;;21.90;;
36441;SDS011;64346;50.820;16.274;2022-12-10T03:42:49;46.25;;;20.50;;
36441;SDS011;64346;50.820;16.274;2022-12-10T03:45:19;41.65;;;18.65;;
36441;SDS011;64346;50.820;16.274;2022-12-10T03:47:46;47.65;;;20.80;;
36441;SDS011;64346;50.820;16.274;2022-12-10T03:50:13;40.95;;;17.98;;
36441;SDS011;64346;50.820;16.274;2022-12-10T03:52:41;44.50;;;18.15;;
36441;SDS011;64346;50.820;16.274;2022-12-10T03:55:08;45.22;;;18.88;;
36441;SDS011;64346;50.820;16.274;2022-12-10T03:57:36;47.58;;;21.35;;
36441;SDS011;64346;50.820;16.274;2022-12-10T04:00:03;48.03;;;19.67;;
36441;SDS011;64346;50.820;16.274;2022-12-10T04:02:33;49.78;;;20.52;;
36441;SDS011;64346;50.820;16.274;2022-12-10T04:05:02;45.53;;;19.40;;
36441;SDS011;64346;50.820;16.274;2022-12-10T04:07:30;49.45;;;22.38;;
36441;SDS011;64346;50.820;16.274;2022-12-10T04:10:00;53.40;;;21.00;;
36441;SDS011;64346;50.820;16.274;2022-12-10T04:12:27;51.03;;;20.70;;
36441;SDS011;64346;50.820;16.274;2022-12-10T04:14:55;43.38;;;19.80;;
36441;SDS011;64346;50.820;16.274;2022-12-10T04:17:22;42.63;;;20.13;;
36441;SDS011;64346;50.820;16.274;2022-12-10T04:19:49;43.80;;;19.00;;
36441;SDS011;64346;50.820;16.274;2022-12-10T04:22:17;45.50;;;20.10;;
36441;SDS011;64346;50.820;16.274;2022-12-10T04:24:48;45.60;;;19.02;;
36441;SDS011;64346;50.820;16.274;2022-12-10T04:27:20;44.45;;;20.77;;
36441;SDS011;64346;50.820;16.274;2022-12-10T04:29:49;40.55;;;17.92;;
36441;SDS011;64346;50.820;16.274;2022-12-10T04:32:17;41.88;;;19.13;;
36441;SDS011;64346;50.820;16.274;2022-12-10T04:34:48;41.28;;;18.83;;
36441;SDS011;64346;50.820;16.274;2022-12-10T04:37:18;39.10;;;17.48;;
36441;SDS011;64346;50.820;16.274;2022-12-10T04:39:49;35.03;;;15.83;;
36441;SDS011;64346;50.820;16.274;2022-12-10T04:42:20;36.47;;;16.88;;
36441;SDS011;64346;50.820;16.274;2022-12-10T04:44:50;39.63;;;17.05;;
36441;SDS011;64346;50.820;16.274;2022-12-10T04:47:18;42.17;;;17.90;;
36441;SDS011;64346;50.820;16.274;2022-12-10T04:49:45;41.78;;;17.98;;
36441;SDS011;64346;50.820;16.274;2022-12-10T04:52:14;38.90;;;16.70;;
36441;SDS011;64346;50.820;16.274;2022-12-10T04:54:42;42.20;;;18.30;;
36441;SDS011;64346;50.820;16.274;2022-12-10T04:57:10;41.20;;;18.48;;
36441;SDS011;64346;50.820;16.274;2022-12-10T04:59:40;38.92;;;17.52;;
36441;SDS011;64346;50.820;16.274;2022-12-10T05:02:08;35.75;;;16.05;;
36441;SDS011;64346;50.820;16.274;2022-12-10T05:04:36;41.50;;;18.00;;
36441;SDS011;64346;50.820;16.274;2022-12-10T05:07:03;41.67;;;18.30;;
36441;SDS011;64346;50.820;16.274;2022-12-10T05:09:33;39.05;;;18.40;;
36441;SDS011;64346;50.820;16.274;2022-12-10T05:12:00;42.03;;;17.95;;
36441;SDS011;64346;50.820;16.274;2022-12-10T05:14:28;43.50;;;17.83;;
36441;SDS011;64346;50.820;16.274;2022-12-10T05:16:58;44.55;;;20.75;;
36441;SDS011;64346;50.820;16.274;2022-12-10T05:19:27;43.17;;;18.42;;
36441;SDS011;64346;50.820;16.274;2022-12-10T05:21:55;40.28;;;16.25;;
36441;SDS011;64346;50.820;16.274;2022-12-10T05:24:22;37.65;;;18.00;;
36441;SDS011;64346;50.820;16.274;2022-12-10T05:26:50;37.90;;;17.63;;
36441;SDS011;64346;50.820;16.274;2022-12-10T05:29:17;41.20;;;18.90;;
36441;SDS011;64346;50.820;16.274;2022-12-10T05:31:48;43.05;;;18.65;;
36441;SDS011;64346;50.820;16.274;2022-12-10T05:34:15;40.50;;;17.73;;
36441;SDS011;64346;50.820;16.274;2022-12-10T05:36:42;43.78;;;18.38;;
36441;SDS011;64346;50.820;16.274;2022-12-10T05:39:12;42.13;;;19.60;;
36441;SDS011;64346;50.820;16.274;2022-12-10T05:41:39;42.20;;;19.23;;
36441;SDS011;64346;50.820;16.274;2022-12-10T05:44:07;38.60;;;17.20;;
36441;SDS011;64346;50.820;16.274;2022-12-10T05:46:36;40.03;;;18.30;;
36441;SDS011;64346;50.820;16.274;2022-12-10T05:49:07;48.00;;;20.73;;
36441;SDS011;64346;50.820;16.274;2022-12-10T05:51:35;48.75;;;20.25;;
36441;SDS011;64346;50.820;16.274;2022-12-10T05:54:04;48.92;;;20.60;;
36441;SDS011;64346;50.820;16.274;2022-12-10T05:56:34;52.30;;;22.58;;
36441;SDS011;64346;50.820;16.274;2022-12-10T05:59:02;49.60;;;21.13;;
36441;SDS011;64346;50.820;16.274;2022-12-10T06:01:31;48.42;;;20.50;;
36441;SDS011;64346;50.820;16.274;2022-12-10T06:04:01;47.13;;;20.80;;
36441;SDS011;64346;50.820;16.274;2022-12-10T06:06:31;50.53;;;20.35;;
36441;SDS011;64346;50.820;16.274;2022-12-10T06:09:03;46.97;;;20.73;;
36441;SDS011;64346;50.820;16.274;2022-12-10T06:11:32;42.55;;;19.33;;
36441;SDS011;64346;50.820;16.274;2022-12-10T06:14:02;48.47;;;21.33;;
36441;SDS011;64346;50.820;16.274;2022-12-10T06:16:30;47.97;;;20.33;;
36441;SDS011;64346;50.820;16.274;2022-12-10T06:18:59;50.53;;;21.80;;
36441;SDS011;64346;50.820;16.274;2022-12-10T06:21:27;45.20;;;19.48;;
36441;SDS011;64346;50.820;16.274;2022-12-10T06:23:54;45.08;;;19.67;;
36441;SDS011;64346;50.820;16.274;2022-12-10T06:26:23;45.08;;;19.13;;
36441;SDS011;64346;50.820;16.274;2022-12-10T06:28:51;46.22;;;20.85;;
36441;SDS011;64346;50.820;16.274;2022-12-10T06:31:20;44.53;;;19.58;;
36441;SDS011;64346;50.820;16.274;2022-12-10T06:33:50;43.45;;;18.65;;
36441;SDS011;64346;50.820;16.274;2022-12-10T06:36:18;41.47;;;19.90;;
36441;SDS011;64346;50.820;16.274;2022-12-10T06:38:47;45.83;;;19.05;;
36441;SDS011;64346;50.820;16.274;2022-12-10T06:41:16;40.28;;;17.42;;
36441;SDS011;64346;50.820;16.274;2022-12-10T06:43:45;39.85;;;17.75;;
36441;SDS011;64346;50.820;16.274;2022-12-10T06:46:13;46.42;;;18.08;;
36441;SDS011;64346;50.820;16.274;2022-12-10T06:48:44;40.95;;;19.23;;
36441;SDS011;64346;50.820;16.274;2022-12-10T06:51:12;40.88;;;17.90;;
36441;SDS011;64346;50.820;16.274;2022-12-10T06:53:41;44.75;;;19.00;;
36441;SDS011;64346;50.820;16.274;2022-12-10T06:56:12;40.03;;;17.88;;
36441;SDS011;64346;50.820;16.274;2022-12-10T06:58:45;41.75;;;18.77;;
36441;SDS011;64346;50.820;16.274;2022-12-10T07:03:41;42.10;;;18.42;;
36441;SDS011;64346;50.820;16.274;2022-12-10T07:06:09;40.15;;;17.05;;
36441;SDS011;64346;50.820;16.274;2022-12-10T07:08:38;41.92;;;18.40;;
36441;SDS011;64346;50.820;16.274;2022-12-10T07:11:06;41.40;;;17.52;;
36441;SDS011;64346;50.820;16.274;2022-12-10T07:13:37;41.15;;;17.73;;
36441;SDS011;64346;50.820;16.274;2022-12-10T07:16:14;45.78;;;19.08;;
36441;SDS011;64346;50.820;16.274;2022-12-10T07:18:44;48.58;;;20.10;;
36441;SDS011;64346;50.820;16.274;2022-12-10T07:21:21;49.58;;;20.48;;
36441;SDS011;64346;50.820;16.274;2022-12-10T07:23:54;57.13;;;22.80;;
36441;SDS011;64346;50.820;16.274;2022-12-10T07:26:27;51.88;;;21.63;;
36441;SDS011;64346;50.820;16.274;2022-12-10T07:28:59;53.73;;;21.97;;
36441;SDS011;64346;50.820;16.274;2022-12-10T07:31:31;53.92;;;21.13;;
36441;SDS011;64346;50.820;16.274;2022-12-10T07:34:00;59.13;;;23.50;;
36441;SDS011;64346;50.820;16.274;2022-12-10T07:36:27;57.78;;;22.95;;
36441;SDS011;64346;50.820;16.274;2022-12-10T07:38:57;60.17;;;23.73;;
36441;SDS011;64346;50.820;16.274;2022-12-10T07:41:24;60.97;;;25.55;;
36441;SDS011;64346;50.820;16.274;2022-12-10T07:43:52;64.40;;;26.40;;
36441;SDS011;64346;50.820;16.274;2022-12-10T07:46:27;62.72;;;26.27;;
36441;SDS011;64346;50.820;16.274;2022-12-10T07:48:56;65.38;;;26.67;;
36441;SDS011;64346;50.820;16.274;2022-12-10T07:51:26;72.85;;;27.05;;
36441;SDS011;64346;50.820;16.274;2022-12-10T07:53:53;71.05;;;25.65;;
36441;SDS011;64346;50.820;16.274;2022-12-10T07:56:22;63.92;;;26.55;;
36441;SDS011;64346;50.820;16.274;2022-12-10T07:58:50;66.80;;;27.90;;
36441;SDS011;64346;50.820;16.274;2022-12-10T08:01:27;61.95;;;25.20;;
36441;SDS011;64346;50.820;16.274;2022-12-10T08:03:55;67.68;;;26.38;;
36441;SDS011;64346;50.820;16.274;2022-12-10T08:06:26;69.95;;;27.27;;
36441;SDS011;64346;50.820;16.274;2022-12-10T08:08:58;59.88;;;25.40;;
36441;SDS011;64346;50.820;16.274;2022-12-10T08:11:28;60.33;;;24.17;;
36441;SDS011;64346;50.820;16.274;2022-12-10T08:13:55;60.22;;;25.67;;
36441;SDS011;64346;50.820;16.274;2022-12-10T08:16:25;59.42;;;23.45;;
36441;SDS011;64346;50.820;16.274;2022-12-10T08:18:55;56.95;;;25.95;;
36441;SDS011;64346;50.820;16.274;2022-12-10T08:21:23;58.72;;;24.33;;
36441;SDS011;64346;50.820;16.274;2022-12-10T08:23:55;61.92;;;26.27;;
36441;SDS011;64346;50.820;16.274;2022-12-10T08:26:26;63.78;;;25.58;;
36441;SDS011;64346;50.820;16.274;2022-12-10T08:28:56;61.78;;;25.80;;
36441;SDS011;64346;50.820;16.274;2022-12-10T08:31:28;57.10;;;25.10;;
36441;SDS011;64346;50.820;16.274;2022-12-10T08:34:04;59.70;;;25.45;;
36441;SDS011;64346;50.820;16.274;2022-12-10T08:36:37;59.38;;;24.95;;
36441;SDS011;64346;50.820;16.274;2022-12-10T08:39:04;62.53;;;25.52;;
36441;SDS011;64346;50.820;16.274;2022-12-10T08:41:31;58.35;;;23.67;;
36441;SDS011;64346;50.820;16.274;2022-12-10T08:44:01;63.53;;;26.67;;
36441;SDS011;64346;50.820;16.274;2022-12-10T08:46:29;62.50;;;27.23;;
36441;SDS011;64346;50.820;16.274;2022-12-10T08:48:56;59.13;;;26.88;;
36441;SDS011;64346;50.820;16.274;2022-12-10T08:51:28;54.65;;;24.17;;
36441;SDS011;64346;50.820;16.274;2022-12-10T08:53:58;55.90;;;25.27;;
36441;SDS011;64346;50.820;16.274;2022-12-10T08:56:25;58.42;;;26.92;;
36441;SDS011;64346;50.820;16.274;2022-12-10T08:58:52;64.05;;;25.77;;
36441;SDS011;64346;50.820;16.274;2022-12-10T09:01:19;59.00;;;27.02;;
36441;SDS011;64346;50.820;16.274;2022-12-10T09:03:49;57.90;;;25.63;;
36441;SDS011;64346;50.820;16.274;2022-12-10T09:06:20;55.17;;;24.42;;
36441;SDS011;64346;50.820;16.274;2022-12-10T09:08:49;50.65;;;23.42;;
36441;SDS011;64346;50.820;16.274;2022-12-10T09:11:18;50.63;;;23.75;;
36441;SDS011;64346;50.820;16.274;2022-12-10T09:13:58;51.60;;;23.35;;
36441;SDS011;64346;50.820;16.274;2022-12-10T09:16:32;61.63;;;28.65;;
36441;SDS011;64346;50.820;16.274;2022-12-10T09:19:02;52.47;;;26.27;;
36441;SDS011;64346;50.820;16.274;2022-12-10T09:21:30;58.05;;;25.77;;
36441;SDS011;64346;50.820;16.274;2022-12-10T09:23:58;56.65;;;25.67;;
36441;SDS011;64346;50.820;16.274;2022-12-10T09:26:28;54.65;;;26.40;;
36441;SDS011;64346;50.820;16.274;2022-12-10T09:28:57;52.90;;;23.25;;
36441;SDS011;64346;50.820;16.274;2022-12-10T09:31:25;46.33;;;21.00;;
36441;SDS011;64346;50.820;16.274;2022-12-10T09:33:53;49.13;;;22.05;;
36441;SDS011;64346;50.820;16.274;2022-12-10T09:36:23;49.65;;;23.25;;
36441;SDS011;64346;50.820;16.274;2022-12-10T09:38:57;54.90;;;24.05;;
36441;SDS011;64346;50.820;16.274;2022-12-10T09:43:53;46.83;;;21.38;;
36441;SDS011;64346;50.820;16.274;2022-12-10T09:49:04;49.70;;;23.10;;
36441;SDS011;64346;50.820;16.274;2022-12-10T09:51:38;50.05;;;22.20;;
36441;SDS011;64346;50.820;16.274;2022-12-10T09:54:20;46.90;;;23.20;;
36441;SDS011;64346;50.820;16.274;2022-12-10T09:56:58;51.30;;;23.67;;
36441;SDS011;64346;50.820;16.274;2022-12-10T10:04:48;56.50;;;25.00;;
36441;SDS011;64346;50.820;16.274;2022-12-10T10:07:21;57.03;;;25.15;;
36441;SDS011;64346;50.820;16.274;2022-12-10T10:09:58;50.53;;;21.42;;
36441;SDS011;64346;50.820;16.274;2022-12-10T10:12:28;55.83;;;23.38;;
36441;SDS011;64346;50.820;16.274;2022-12-10T10:14:58;49.58;;;23.63;;
36441;SDS011;64346;50.820;16.274;2022-12-10T10:17:36;52.65;;;24.10;;
36441;SDS011;64346;50.820;16.274;2022-12-10T10:20:05;52.75;;;24.50;;
36441;SDS011;64346;50.820;16.274;2022-12-10T10:22:33;55.08;;;26.33;;
36441;SDS011;64346;50.820;16.274;2022-12-10T10:25:04;54.85;;;24.30;;
36441;SDS011;64346;50.820;16.274;2022-12-10T10:27:39;64.10;;;27.30;;
36441;SDS011;64346;50.820;16.274;2022-12-10T10:30:12;53.05;;;23.65;;
36441;SDS011;64346;50.820;16.274;2022-12-10T10:35:26;60.88;;;27.42;;
36441;SDS011;64346;50.820;16.274;2022-12-10T10:40:28;64.68;;;26.67;;
36441;SDS011;64346;50.820;16.274;2022-12-10T10:43:00;64.32;;;24.73;;
36441;SDS011;64346;50.820;16.274;2022-12-10T10:48:36;67.43;;;26.63;;
36441;SDS011;64346;50.820;16.274;2022-12-10T10:51:12;67.38;;;27.02;;
36441;SDS011;64346;50.820;16.274;2022-12-10T10:53:52;71.43;;;29.92;;
36441;SDS011;64346;50.820;16.274;2022-12-10T11:01:19;71.22;;;28.58;;
36441;SDS011;64346;50.820;16.274;2022-12-10T11:03:53;70.25;;;27.45;;
36441;SDS011;64346;50.820;16.274;2022-12-10T11:06:24;69.90;;;28.25;;
36441;SDS011;64346;50.820;16.274;2022-12-10T11:08:57;70.57;;;27.55;;
36441;SDS011;64346;50.820;16.274;2022-12-10T11:11:31;80.47;;;29.23;;
36441;SDS011;64346;50.820;16.274;2022-12-10T11:16:59;69.03;;;27.00;;
36441;SDS011;64346;50.820;16.274;2022-12-10T11:19:52;69.60;;;30.92;;
36441;SDS011;64346;50.820;16.274;2022-12-10T11:22:21;74.88;;;29.25;;
36441;SDS011;64346;50.820;16.274;2022-12-10T11:24:59;67.28;;;27.13;;
36441;SDS011;64346;50.820;16.274;2022-12-10T11:30:14;72.20;;;26.80;;
36441;SDS011;64346;50.820;16.274;2022-12-10T11:37:53;76.95;;;30.63;;
36441;SDS011;64346;50.820;16.274;2022-12-10T11:46:23;79.78;;;31.45;;
36441;SDS011;64346;50.820;16.274;2022-12-10T12:02:53;105.18;;;30.17;;
36441;SDS011;64346;50.820;16.274;2022-12-10T12:06:16;75.03;;;28.27;;
36441;SDS011;64346;50.820;16.274;2022-12-10T12:09:08;83.72;;;29.70;;
36441;SDS011;64346;50.820;16.274;2022-12-10T12:14:44;79.07;;;28.15;;
36441;SDS011;64346;50.820;16.274;2022-12-10T12:20:00;94.13;;;28.63;;
36441;SDS011;64346;50.820;16.274;2022-12-10T12:22:34;83.47;;;29.30;;
36441;SDS011;64346;50.820;16.274;2022-12-10T12:25:15;83.65;;;27.00;;
36441;SDS011;64346;50.820;16.274;2022-12-10T12:27:50;88.82;;;27.95;;
36441;SDS011;64346;50.820;16.274;2022-12-10T12:30:22;71.78;;;31.08;;
36441;SDS011;64346;50.820;16.274;2022-12-10T12:35:22;76.82;;;28.70;;
36441;SDS011;64346;50.820;16.274;2022-12-10T12:38:03;93.07;;;28.77;;
36441;SDS011;64346;50.820;16.274;2022-12-10T12:40:48;73.38;;;27.17;;
36441;SDS011;64346;50.820;16.274;2022-12-10T12:45:52;83.85;;;31.80;;
36441;SDS011;64346;50.820;16.274;2022-12-10T12:48:26;80.47;;;34.13;;
36441;SDS011;64346;50.820;16.274;2022-12-10T12:51:27;83.35;;;32.25;;
36441;SDS011;64346;50.820;16.274;2022-12-10T12:54:04;61.10;;;26.85;;
36441;SDS011;64346;50.820;16.274;2022-12-10T13:04:50;59.80;;;23.85;;
36441;SDS011;64346;50.820;16.274;2022-12-10T13:09:46;74.07;;;30.33;;
36441;SDS011;64346;50.820;16.274;2022-12-10T13:12:31;75.60;;;31.30;;
36441;SDS011;64346;50.820;16.274;2022-12-10T13:15:42;79.28;;;31.73;;
36441;SDS011;64346;50.820;16.274;2022-12-10T13:20:49;84.18;;;31.95;;
36441;SDS011;64346;50.820;16.274;2022-12-10T13:36:37;75.55;;;29.98;;
36441;SDS011;64346;50.820;16.274;2022-12-10T13:39:52;74.85;;;29.98;;
36441;SDS011;64346;50.820;16.274;2022-12-10T13:42:52;75.72;;;29.50;;
36441;SDS011;64346;50.820;16.274;2022-12-10T13:45:42;79.28;;;27.67;;
36441;SDS011;64346;50.820;16.274;2022-12-10T13:48:17;68.72;;;26.60;;
36441;SDS011;64346;50.820;16.274;2022-12-10T14:07:54;67.78;;;28.52;;
36441;SDS011;64346;50.820;16.274;2022-12-10T14:10:29;65.10;;;28.23;;
36441;SDS011;64346;50.820;16.274;2022-12-10T14:12:59;64.63;;;28.98;;
36441;SDS011;64346;50.820;16.274;2022-12-10T14:15:31;70.15;;;32.20;;
36441;SDS011;64346;50.820;16.274;2022-12-10T14:18:13;62.13;;;28.52;;
36441;SDS011;64346;50.820;16.274;2022-12-10T14:20:44;59.28;;;26.65;;
36441;SDS011;64346;50.820;16.274;2022-12-10T14:23:26;62.80;;;28.73;;
36441;SDS011;64346;50.820;16.274;2022-12-10T14:25:55;53.97;;;25.05;;
36441;SDS011;64346;50.820;16.274;2022-12-10T14:28:23;65.93;;;29.50;;
36441;SDS011;64346;50.820;16.274;2022-12-10T14:30:50;54.95;;;26.38;;
36441;SDS011;64346;50.820;16.274;2022-12-10T14:33:19;51.83;;;24.50;;
36441;SDS011;64346;50.820;16.274;2022-12-10T14:35:53;55.15;;;26.45;;
36441;SDS011;64346;50.820;16.274;2022-12-10T14:38:26;62.70;;;28.42;;
36441;SDS011;64346;50.820;16.274;2022-12-10T14:40:57;59.97;;;26.88;;
36441;SDS011;64346;50.820;16.274;2022-12-10T14:43:38;60.65;;;27.05;;
36441;SDS011;64346;50.820;16.274;2022-12-10T14:46:15;49.08;;;25.02;;
36441;SDS011;64346;50.820;16.274;2022-12-10T14:48:48;52.58;;;24.63;;
36441;SDS011;64346;50.820;16.274;2022-12-10T14:51:18;55.72;;;25.17;;
36441;SDS011;64346;50.820;16.274;2022-12-10T14:53:48;53.08;;;24.70;;
36441;SDS011;64346;50.820;16.274;2022-12-10T14:56:19;54.13;;;24.75;;
36441;SDS011;64346;50.820;16.274;2022-12-10T14:58:55;49.88;;;24.65;;
36441;SDS011;64346;50.820;16.274;2022-12-10T15:04:00;58.78;;;25.15;;
36441;SDS011;64346;50.820;16.274;2022-12-10T15:06:34;63.15;;;27.90;;
36441;SDS011;64346;50.820;16.274;2022-12-10T15:09:03;54.83;;;26.73;;
36441;SDS011;64346;50.820;16.274;2022-12-10T15:11:32;57.83;;;26.23;;
36441;SDS011;64346;50.820;16.274;2022-12-10T15:14:02;56.97;;;26.60;;
36441;SDS011;64346;50.820;16.274;2022-12-10T15:16:42;56.00;;;26.63;;
36441;SDS011;64346;50.820;16.274;2022-12-10T15:19:21;55.90;;;26.48;;
36441;SDS011;64346;50.820;16.274;2022-12-10T15:21:50;56.78;;;25.77;;
36441;SDS011;64346;50.820;16.274;2022-12-10T15:24:20;58.38;;;27.67;;
36441;SDS011;64346;50.820;16.274;2022-12-10T15:26:53;59.80;;;27.08;;
36441;SDS011;64346;50.820;16.274;2022-12-10T15:31:55;60.08;;;28.17;;
36441;SDS011;64346;50.820;16.274;2022-12-10T15:34:28;64.82;;;29.00;;
36441;SDS011;64346;50.820;16.274;2022-12-10T15:37:00;58.40;;;27.10;;
36441;SDS011;64346;50.820;16.274;2022-12-10T15:39:35;56.80;;;26.25;;
36441;SDS011;64346;50.820;16.274;2022-12-10T15:45:37;59.20;;;27.98;;
36441;SDS011;64346;50.820;16.274;2022-12-10T15:48:08;57.97;;;28.00;;
36441;SDS011;64346;50.820;16.274;2022-12-10T15:50:42;64.38;;;29.80;;
36441;SDS011;64346;50.820;16.274;2022-12-10T15:53:14;63.77;;;29.30;;
36441;SDS011;64346;50.820;16.274;2022-12-10T15:55:50;68.50;;;30.50;;
36441;SDS011;64346;50.820;16.274;2022-12-10T15:58:18;67.65;;;30.33;;
36441;SDS011;64346;50.820;16.274;2022-12-10T16:00:46;69.57;;;29.52;;
36441;SDS011;64346;50.820;16.274;2022-12-10T16:03:15;63.10;;;29.30;;
36441;SDS011;64346;50.820;16.274;2022-12-10T16:05:43;62.35;;;29.08;;
36441;SDS011;64346;50.820;16.274;2022-12-10T16:10:42;67.88;;;28.65;;
36441;SDS011;64346;50.820;16.274;2022-12-10T16:13:13;65.78;;;29.33;;
36441;SDS011;64346;50.820;16.274;2022-12-10T16:15:45;61.83;;;27.65;;
36441;SDS011;64346;50.820;16.274;2022-12-10T16:18:18;64.97;;;29.30;;
36441;SDS011;64346;50.820;16.274;2022-12-10T16:20:45;63.13;;;29.05;;
36441;SDS011;64346;50.820;16.274;2022-12-10T16:23:13;66.93;;;29.77;;
36441;SDS011;64346;50.820;16.274;2022-12-10T16:25:41;69.60;;;33.00;;
36441;SDS011;64346;50.820;16.274;2022-12-10T16:28:14;66.38;;;30.63;;
36441;SDS011;64346;50.820;16.274;2022-12-10T16:30:44;67.47;;;31.48;;
36441;SDS011;64346;50.820;16.274;2022-12-10T16:33:15;71.75;;;31.98;;
36441;SDS011;64346;50.820;16.274;2022-12-10T16:35:51;70.65;;;30.10;;
36441;SDS011;64346;50.820;16.274;2022-12-10T16:38:20;63.42;;;31.15;;
36441;SDS011;64346;50.820;16.274;2022-12-10T16:40:50;64.18;;;29.45;;
36441;SDS011;64346;50.820;16.274;2022-12-10T16:43:22;60.30;;;28.90;;
36441;SDS011;64346;50.820;16.274;2022-12-10T16:45:56;69.38;;;30.40;;
36441;SDS011;64346;50.820;16.274;2022-12-10T16:48:24;63.50;;;27.75;;
36441;SDS011;64346;50.820;16.274;2022-12-10T16:50:51;62.60;;;29.73;;
36441;SDS011;64346;50.820;16.274;2022-12-10T16:53:24;67.53;;;31.40;;
36441;SDS011;64346;50.820;16.274;2022-12-10T16:55:54;65.53;;;28.67;;